createdAt,value
2022-12-15T00:02:34.494Z,100.00
2022-12-15T00:05:19.647Z,100.00
2022-12-15T00:08:05.014Z,100.00
2022-12-15T00:10:50.339Z,98.94
2022-12-15T00:13:35.733Z,97.35
2022-12-15T00:16:21.168Z,97.14
2022-12-15T00:19:06.422Z,98.47
2022-12-15T00:21:51.845Z,99.83
2022-12-15T00:24:36.995Z,99.15
2022-12-15T00:27:22.271Z,98.67
2022-12-15T00:30:07.727Z,97.82
2022-12-15T00:32:53.243Z,97.18
2022-12-15T00:35:38.468Z,96.44
2022-12-15T00:38:33.594Z,95.69
2022-12-15T00:41:03.386Z,96.79
2022-12-15T00:43:33.590Z,97.62
2022-12-15T00:46:19.436Z,99.04
2022-12-15T00:48:47.016Z,99.47
2022-12-15T00:51:14.585Z,99.68
2022-12-15T00:54:00.279Z,97.79
2022-12-15T00:56:45.569Z,97.13
2022-12-15T00:59:31.463Z,98.74
2022-12-15T01:02:17.057Z,98.92
2022-12-15T01:05:02.156Z,97.20
2022-12-15T01:07:49.618Z,95.47
2022-12-15T01:10:36.295Z,95.62
2022-12-15T01:13:22.117Z,96.04
2022-12-15T01:16:07.563Z,96.18
2022-12-15T01:18:53.836Z,95.48
2022-12-15T01:21:24.281Z,95.34
2022-12-15T01:23:52.178Z,96.69
2022-12-15T01:26:18.822Z,96.09
2022-12-15T01:28:45.454Z,97.14
2022-12-15T01:31:12.720Z,95.82
2022-12-15T01:33:39.950Z,95.33
2022-12-15T01:36:07.240Z,95.11
2022-12-15T01:38:33.916Z,94.48
2022-12-15T01:41:06.563Z,94.23
2022-12-15T01:43:35.970Z,96.97
2022-12-15T01:46:23.545Z,95.56
2022-12-15T01:49:15.385Z,96.52
2022-12-15T01:51:47.293Z,95.18
2022-12-15T01:54:25.336Z,97.84
2022-12-15T01:56:57.279Z,98.34
2022-12-15T01:59:32.667Z,98.83
2022-12-15T02:01:59.371Z,100.00
2022-12-15T02:04:26.410Z,100.00
2022-12-15T02:06:53.549Z,100.00
2022-12-15T02:09:22.453Z,100.00
2022-12-15T02:12:16.245Z,99.75
2022-12-15T02:14:58.767Z,98.82
2022-12-15T02:18:04.559Z,97.71
2022-12-15T02:21:12.884Z,97.20
2022-12-15T02:24:00.670Z,97.34
2022-12-15T02:27:16.918Z,99.57
2022-12-15T02:30:22.732Z,99.42
2022-12-15T02:33:11.474Z,99.16
2022-12-15T02:36:09.911Z,99.37
2022-12-15T02:38:39.453Z,99.08
2022-12-15T02:41:26.810Z,99.09
2022-12-15T02:43:53.542Z,98.47
2022-12-15T02:46:50.495Z,98.89
2022-12-15T02:49:57.487Z,98.68
2022-12-15T02:52:57.270Z,97.65
2022-12-15T02:56:03.418Z,97.80
2022-12-15T02:58:52.707Z,100.00
2022-12-15T03:01:30.235Z,100.00
2022-12-15T03:04:00.266Z,100.00
2022-12-15T03:06:27.183Z,100.00
2022-12-15T03:08:53.752Z,100.00
2022-12-15T03:11:20.406Z,100.00
2022-12-15T03:13:47.013Z,100.00
2022-12-15T03:16:16.931Z,99.83
2022-12-15T03:18:43.594Z,100.00
2022-12-15T03:21:10.249Z,100.00
2022-12-15T03:23:36.853Z,100.00
2022-12-15T03:26:03.668Z,100.00
2022-12-15T03:28:30.248Z,99.59
2022-12-15T03:30:56.798Z,99.05
2022-12-15T03:33:23.406Z,98.57
2022-12-15T03:35:51.189Z,98.19
2022-12-15T03:38:18.406Z,96.99
2022-12-15T03:40:45.051Z,97.85
2022-12-15T03:43:11.648Z,98.86
2022-12-15T03:45:38.270Z,98.88
2022-12-15T03:48:05.024Z,99.68
2022-12-15T03:50:31.669Z,100.00
2022-12-15T03:53:00.576Z,99.33
2022-12-15T03:55:30.980Z,98.89
2022-12-15T03:57:59.129Z,99.44
2022-12-15T04:00:25.877Z,100.00
2022-12-15T04:02:52.993Z,100.00
2022-12-15T04:05:31.118Z,100.00
2022-12-15T04:07:58.910Z,100.00
2022-12-15T04:10:33.674Z,100.00
2022-12-15T04:13:02.659Z,100.00
2022-12-15T04:15:29.491Z,100.00
2022-12-15T04:17:56.775Z,98.55
2022-12-15T04:20:24.095Z,99.57
2022-12-15T04:22:51.308Z,100.00
2022-12-15T04:25:39.423Z,100.00
2022-12-15T04:28:25.716Z,99.69
2022-12-15T04:31:17.197Z,99.11
2022-12-15T04:34:08.415Z,100.00
2022-12-15T04:36:56.367Z,98.28
2022-12-15T04:39:42.257Z,100.00
2022-12-15T04:42:28.036Z,100.00
2022-12-15T04:45:20.618Z,100.00
2022-12-15T04:48:06.586Z,100.00
2022-12-15T04:50:51.965Z,100.00
2022-12-15T04:53:37.785Z,100.00
2022-12-15T04:56:27.767Z,99.96
2022-12-15T04:59:13.160Z,99.24
2022-12-15T05:01:58.696Z,100.00
2022-12-15T05:04:43.930Z,99.34
2022-12-15T05:07:29.106Z,100.00
2022-12-15T05:10:15.347Z,100.00
2022-12-15T05:13:01.341Z,100.00
2022-12-15T05:15:46.924Z,100.00
2022-12-15T05:18:32.052Z,99.77
2022-12-15T05:21:17.947Z,100.00
2022-12-15T05:24:03.296Z,100.00
2022-12-15T05:26:52.641Z,100.00
2022-12-15T05:29:39.449Z,100.00
2022-12-15T05:32:07.376Z,100.00
2022-12-15T05:34:35.937Z,100.00
2022-12-15T05:37:03.893Z,100.00
2022-12-15T05:39:30.512Z,100.00
2022-12-15T05:41:57.406Z,100.00
2022-12-15T05:44:25.257Z,99.74
2022-12-15T05:46:52.012Z,100.00
2022-12-15T05:49:19.177Z,100.00
2022-12-15T05:51:47.662Z,100.00
2022-12-15T05:54:19.587Z,100.00
2022-12-15T05:56:50.157Z,100.00
2022-12-15T05:59:17.323Z,100.00
2022-12-15T06:01:43.862Z,100.00
2022-12-15T06:04:12.760Z,100.00
2022-12-15T06:06:40.059Z,100.00
2022-12-15T06:09:08.116Z,100.00
2022-12-15T06:11:34.820Z,100.00
2022-12-15T06:14:01.475Z,99.84
2022-12-15T06:16:28.228Z,99.32
2022-12-15T06:18:58.598Z,99.42
2022-12-15T06:21:27.938Z,99.72
2022-12-15T06:23:56.227Z,99.42
2022-12-15T06:26:40.240Z,98.92
2022-12-15T06:29:10.473Z,99.56
2022-12-15T06:31:38.157Z,100.00
2022-12-15T06:34:07.756Z,99.64
2022-12-15T06:36:34.741Z,100.00
2022-12-15T06:39:04.241Z,99.82
2022-12-15T06:41:31.685Z,100.00
2022-12-15T06:43:59.376Z,99.85
2022-12-15T06:46:27.890Z,99.98
2022-12-15T06:48:54.693Z,100.00
2022-12-15T06:51:21.288Z,100.00
2022-12-15T06:53:54.128Z,100.00
2022-12-15T06:56:32.653Z,100.00
2022-12-15T06:59:00.330Z,100.00
2022-12-15T07:01:27.556Z,100.00
2022-12-15T07:03:54.807Z,100.00
2022-12-15T07:06:21.615Z,100.00
2022-12-15T07:08:56.417Z,100.00
2022-12-15T07:11:23.687Z,100.00
2022-12-15T07:13:51.640Z,100.00
2022-12-15T07:16:18.766Z,100.00
2022-12-15T07:18:45.337Z,100.00
2022-12-15T07:21:12.143Z,100.00
2022-12-15T07:23:56.246Z,100.00
2022-12-15T07:26:24.259Z,100.00
2022-12-15T07:28:50.879Z,100.00
2022-12-15T07:31:17.961Z,100.00
2022-12-15T07:33:45.182Z,100.00
2022-12-15T07:36:11.834Z,100.00
2022-12-15T07:38:38.512Z,100.00
2022-12-15T07:41:07.723Z,100.00
2022-12-15T07:43:35.580Z,100.00
2022-12-15T07:46:03.186Z,100.00
2022-12-15T07:48:30.081Z,100.00
2022-12-15T07:51:08.481Z,100.00
2022-12-15T07:53:38.264Z,99.87
2022-12-15T07:56:08.425Z,98.72
2022-12-15T07:58:36.162Z,98.50
2022-12-15T08:01:05.826Z,98.22
2022-12-15T08:03:33.041Z,97.88
2022-12-15T08:06:05.378Z,97.63
2022-12-15T08:08:32.569Z,98.19
2022-12-15T08:10:59.432Z,97.93
2022-12-15T08:14:00.695Z,96.93
2022-12-15T08:16:12.944Z,98.15
2022-12-15T08:18:39.647Z,97.19
2022-12-15T08:21:10.186Z,97.84
2022-12-15T08:23:37.833Z,97.93
2022-12-15T08:26:05.907Z,96.63
2022-12-15T08:28:34.229Z,97.03
2022-12-15T08:31:06.040Z,96.21
2022-12-15T08:33:33.337Z,95.26
2022-12-15T08:36:03.072Z,95.55
2022-12-15T08:38:31.480Z,95.45
2022-12-15T08:40:58.357Z,96.31
2022-12-15T08:43:24.954Z,96.56
2022-12-15T08:45:51.615Z,96.22
2022-12-15T08:48:18.228Z,95.84
2022-12-15T08:50:45.877Z,95.20
2022-12-15T08:56:07.799Z,94.40
2022-12-15T08:58:34.594Z,94.56
2022-12-15T09:01:06.309Z,94.00
2022-12-15T09:03:35.077Z,93.02
2022-12-15T09:06:07.509Z,92.41
2022-12-15T09:08:34.815Z,93.61
2022-12-15T09:11:02.460Z,92.53
2022-12-15T09:13:30.019Z,92.24
2022-12-15T09:16:10.905Z,93.50
2022-12-15T09:18:38.003Z,92.53
2022-12-15T09:21:07.506Z,92.66
2022-12-15T09:23:36.238Z,93.11
2022-12-15T09:26:17.147Z,92.45
2022-12-15T09:28:43.815Z,92.95
2022-12-15T09:31:21.977Z,92.44
2022-12-15T09:33:51.215Z,92.89
2022-12-15T09:36:18.236Z,93.93
2022-12-15T09:38:45.021Z,94.59
2022-12-15T09:41:31.858Z,93.51
2022-12-15T09:44:14.497Z,92.73
2022-12-15T09:47:32.184Z,93.51
2022-12-15T09:50:01.616Z,93.75
2022-12-15T09:52:41.803Z,94.57
2022-12-15T09:55:21.433Z,94.29
2022-12-15T09:57:56.361Z,93.96
2022-12-15T10:00:25.910Z,93.20
2022-12-15T10:03:30.646Z,91.64
2022-12-15T10:06:22.688Z,90.71
2022-12-15T10:09:02.309Z,91.03
2022-12-15T10:11:57.420Z,91.53
2022-12-15T10:14:41.881Z,90.66
2022-12-15T10:17:30.577Z,90.20
2022-12-15T10:20:22.017Z,91.57
2022-12-15T10:22:50.488Z,91.40
2022-12-15T10:25:30.540Z,93.34
2022-12-15T10:28:27.259Z,95.00
2022-12-15T10:31:02.513Z,94.86
2022-12-15T10:33:36.791Z,95.93
2022-12-15T10:36:10.908Z,95.63
2022-12-15T10:38:47.497Z,96.71
2022-12-15T10:41:25.890Z,94.88
2022-12-15T10:43:54.243Z,95.31
2022-12-15T10:46:24.213Z,95.23
2022-12-15T10:48:59.391Z,94.83
2022-12-15T10:51:42.722Z,94.98
2022-12-15T10:54:13.974Z,96.25
2022-12-15T10:56:58.175Z,95.79
2022-12-15T10:59:36.429Z,94.59
2022-12-15T11:02:38.673Z,93.48
2022-12-15T11:05:16.241Z,94.08
2022-12-15T11:07:47.597Z,93.79
2022-12-15T11:10:20.374Z,93.08
2022-12-15T11:13:17.696Z,94.45
2022-12-15T11:15:47.221Z,94.55
2022-12-15T11:19:00.716Z,93.25
2022-12-15T11:21:32.927Z,93.67
2022-12-15T11:24:39.994Z,93.64
2022-12-15T11:27:15.546Z,93.54
2022-12-15T11:30:22.339Z,93.56
2022-12-15T11:32:53.616Z,93.11
2022-12-15T11:36:10.086Z,93.93
2022-12-15T11:38:52.217Z,93.73
2022-12-15T11:41:50.356Z,95.39
2022-12-15T11:44:45.180Z,94.01
2022-12-15T11:47:46.253Z,93.82
2022-12-15T11:50:31.402Z,92.71
2022-12-15T11:53:23.761Z,93.06
2022-12-15T11:56:33.837Z,93.24
2022-12-15T11:59:15.788Z,93.80
2022-12-15T12:02:02.399Z,94.90
2022-12-15T12:05:17.376Z,93.32
2022-12-15T12:07:49.058Z,92.65
2022-12-15T12:11:10.112Z,94.46
2022-12-15T12:14:23.082Z,93.19
2022-12-15T12:16:53.873Z,92.98
2022-12-15T12:20:06.304Z,92.62
2022-12-15T12:23:00.083Z,92.90
2022-12-15T12:25:27.003Z,92.90
2022-12-15T12:28:00.084Z,92.06
2022-12-15T12:30:33.986Z,92.75
2022-12-15T12:33:28.425Z,93.07
2022-12-15T12:36:02.336Z,93.46
2022-12-15T12:38:56.804Z,94.42
2022-12-15T12:41:59.884Z,95.13
2022-12-15T12:44:30.993Z,95.77
2022-12-15T12:47:00.386Z,95.08
2022-12-15T12:50:00.128Z,96.75
2022-12-15T12:52:31.356Z,97.20
2022-12-15T12:55:09.458Z,96.47
2022-12-15T12:57:41.965Z,96.31
2022-12-15T13:00:20.761Z,96.83
2022-12-15T13:03:21.055Z,97.39
2022-12-15T13:05:50.547Z,98.04
2022-12-15T13:08:26.739Z,98.27
2022-12-15T13:10:55.357Z,98.47
2022-12-15T13:13:51.294Z,98.23
2022-12-15T13:16:40.120Z,97.84
2022-12-15T13:19:08.545Z,98.67
2022-12-15T13:21:55.109Z,97.94
2022-12-15T13:24:46.135Z,98.23
2022-12-15T13:27:17.292Z,97.81
2022-12-15T13:30:00.481Z,98.68
2022-12-15T13:32:41.992Z,98.35
2022-12-15T13:35:25.212Z,98.52
2022-12-15T13:37:55.857Z,99.44
2022-12-15T13:40:54.684Z,99.12
2022-12-15T13:43:41.510Z,99.20
2022-12-15T13:46:18.549Z,99.98
2022-12-15T13:48:50.207Z,99.04
2022-12-15T13:51:30.416Z,98.56
2022-12-15T13:54:09.923Z,97.47
2022-12-15T13:56:43.155Z,97.99
2022-12-15T13:59:35.741Z,99.02
2022-12-15T14:02:02.349Z,98.81
2022-12-15T14:04:29.063Z,98.76
2022-12-15T14:07:00.090Z,99.29
2022-12-15T14:09:33.314Z,99.35
2022-12-15T14:12:02.476Z,98.12
2022-12-15T14:14:36.154Z,97.96
2022-12-15T14:17:07.746Z,98.46
2022-12-15T14:19:42.611Z,98.84
2022-12-15T14:22:29.000Z,98.00
2022-12-15T14:25:13.250Z,98.33
2022-12-15T14:27:39.853Z,98.27
2022-12-15T14:30:20.182Z,97.94
2022-12-15T14:32:52.558Z,97.31
2022-12-15T14:35:31.200Z,97.27
2022-12-15T14:38:01.859Z,97.07
2022-12-15T14:40:29.838Z,96.95
2022-12-15T14:42:56.762Z,96.51
2022-12-15T14:45:28.560Z,96.67
2022-12-15T14:48:30.659Z,97.21
2022-12-15T14:50:48.616Z,97.15
2022-12-15T14:53:17.853Z,97.44
2022-12-15T14:55:44.549Z,97.47
2022-12-15T14:58:33.196Z,97.50
2022-12-15T15:01:01.716Z,98.07
2022-12-15T15:03:36.139Z,98.20
2022-12-15T15:06:17.644Z,98.96
2022-12-15T15:08:52.873Z,99.44
2022-12-15T15:11:29.689Z,100.00
2022-12-15T15:14:03.353Z,98.97
2022-12-15T15:16:30.211Z,99.46
2022-12-15T15:19:00.879Z,98.95
2022-12-15T15:21:30.676Z,99.68
2022-12-15T15:24:20.381Z,99.55
2022-12-15T15:26:47.069Z,100.00
2022-12-15T15:29:39.606Z,100.00
2022-12-15T15:32:17.795Z,100.00
2022-12-15T15:34:47.153Z,100.00
2022-12-15T15:37:24.937Z,100.00
2022-12-15T15:39:53.402Z,100.00
2022-12-15T15:42:20.239Z,100.00
2022-12-15T15:44:46.869Z,100.00
2022-12-15T15:47:33.716Z,100.00
2022-12-15T15:50:00.497Z,100.00
2022-12-15T15:52:29.639Z,100.00
2022-12-15T15:54:56.367Z,100.00
2022-12-15T15:57:22.942Z,100.00
2022-12-15T15:59:49.471Z,100.00
2022-12-15T16:02:16.198Z,100.00
2022-12-15T16:04:45.730Z,100.00
2022-12-15T16:07:22.289Z,100.00
2022-12-15T16:09:49.328Z,100.00
2022-12-15T16:12:40.688Z,100.00
2022-12-15T16:15:20.533Z,100.00
2022-12-15T16:17:47.877Z,100.00
2022-12-15T16:20:17.068Z,100.00
2022-12-15T16:22:46.579Z,100.00
2022-12-15T16:25:26.015Z,100.00
2022-12-15T16:27:52.565Z,100.00
2022-12-15T16:30:25.713Z,100.00
2022-12-15T16:32:54.977Z,100.00
2022-12-15T16:35:26.063Z,100.00
2022-12-15T16:37:52.817Z,100.00
2022-12-15T16:40:25.425Z,100.00
2022-12-15T16:42:58.088Z,100.00
2022-12-15T16:45:26.871Z,100.00
2022-12-15T16:47:53.959Z,100.00
2022-12-15T16:50:30.324Z,100.00
2022-12-15T16:52:58.363Z,100.00
2022-12-15T16:55:32.715Z,100.00
2022-12-15T16:58:04.905Z,100.00
2022-12-15T17:00:34.201Z,100.00
2022-12-15T17:03:02.393Z,100.00
2022-12-15T17:05:32.964Z,100.00
2022-12-15T17:08:02.684Z,100.00
2022-12-15T17:10:30.761Z,100.00
2022-12-15T17:13:03.873Z,100.00
2022-12-15T17:15:30.439Z,100.00
2022-12-15T17:17:57.359Z,100.00
2022-12-15T17:20:29.773Z,100.00
2022-12-15T17:23:04.540Z,100.00
2022-12-15T17:26:17.238Z,100.00
2022-12-15T17:28:31.009Z,100.00
2022-12-15T17:30:57.914Z,100.00
2022-12-15T17:33:30.052Z,100.00
2022-12-15T17:36:01.197Z,100.00
2022-12-15T17:38:28.176Z,100.00
2022-12-15T17:40:55.275Z,100.00
2022-12-15T17:43:28.189Z,100.00
2022-12-15T17:45:58.622Z,100.00
2022-12-15T17:48:25.470Z,100.00
2022-12-15T17:50:53.602Z,100.00
2022-12-15T17:53:22.676Z,100.00
2022-12-15T17:55:50.376Z,100.00
2022-12-15T17:58:25.314Z,100.00
2022-12-15T18:00:55.754Z,100.00
2022-12-15T18:03:23.392Z,100.00
2022-12-15T18:05:52.910Z,100.00
2022-12-15T18:08:25.266Z,100.00
2022-12-15T18:10:56.677Z,100.00
2022-12-15T18:13:33.368Z,100.00
2022-12-15T18:16:02.060Z,100.00
2022-12-15T18:18:29.018Z,100.00
2022-12-15T18:21:03.431Z,100.00
2022-12-15T18:23:31.400Z,100.00
2022-12-15T18:26:02.941Z,100.00
2022-12-15T18:28:32.576Z,100.00
2022-12-15T18:31:14.021Z,100.00
2022-12-15T18:33:40.755Z,100.00
2022-12-15T18:36:09.311Z,100.00
2022-12-15T18:38:35.885Z,100.00
2022-12-15T18:41:04.493Z,100.00
2022-12-15T18:43:33.884Z,100.00
2022-12-15T18:46:01.092Z,100.00
2022-12-15T18:48:33.639Z,100.00
2022-12-15T18:51:01.415Z,100.00
2022-12-15T18:53:34.435Z,100.00
2022-12-15T18:56:04.193Z,100.00
2022-12-15T18:58:36.251Z,100.00
2022-12-15T19:01:04.797Z,100.00
2022-12-15T19:03:32.101Z,100.00
2022-12-15T19:06:35.938Z,100.00
2022-12-15T19:09:12.270Z,100.00
2022-12-15T19:11:39.252Z,100.00
2022-12-15T19:14:32.987Z,100.00
2022-12-15T19:17:18.466Z,100.00
2022-12-15T19:20:03.348Z,100.00
2022-12-15T19:22:30.790Z,100.00
2022-12-15T19:24:58.521Z,100.00
2022-12-15T19:27:26.586Z,100.00
2022-12-15T19:29:54.527Z,100.00
2022-12-15T19:32:21.744Z,100.00
2022-12-15T19:34:48.642Z,100.00
2022-12-15T19:37:30.941Z,100.00
2022-12-15T19:40:00.666Z,100.00
2022-12-15T19:42:35.606Z,100.00
2022-12-15T19:45:13.802Z,100.00
2022-12-15T19:47:40.360Z,100.00
2022-12-15T19:50:07.697Z,100.00
2022-12-15T19:52:34.672Z,100.00
2022-12-15T19:55:01.384Z,100.00
2022-12-15T19:57:27.961Z,100.00
2022-12-15T19:59:54.577Z,100.00
2022-12-15T20:02:21.684Z,100.00
2022-12-15T20:04:48.733Z,100.00
2022-12-15T20:07:33.353Z,100.00
2022-12-15T20:10:00.739Z,100.00
2022-12-15T20:12:27.396Z,100.00
2022-12-15T20:14:54.064Z,100.00
2022-12-15T20:17:20.601Z,100.00
2022-12-15T20:19:47.134Z,100.00
2022-12-15T20:22:16.048Z,100.00
2022-12-15T20:24:43.800Z,100.00
2022-12-15T20:27:15.367Z,100.00
2022-12-15T20:29:42.344Z,100.00
2022-12-15T20:32:15.580Z,100.00
2022-12-15T20:34:42.252Z,100.00
2022-12-15T20:37:29.343Z,100.00
2022-12-15T20:39:57.876Z,100.00
2022-12-15T20:42:25.320Z,100.00
2022-12-15T20:44:51.960Z,100.00
2022-12-15T20:47:24.526Z,100.00
2022-12-15T20:49:52.748Z,100.00
2022-12-15T20:52:22.793Z,100.00
2022-12-15T20:54:50.492Z,100.00
2022-12-15T20:57:17.398Z,100.00
2022-12-15T20:59:44.725Z,100.00
2022-12-15T21:02:20.177Z,100.00
2022-12-15T21:04:47.706Z,100.00
2022-12-15T21:07:14.537Z,100.00
2022-12-15T21:09:41.119Z,100.00
2022-12-15T21:12:27.841Z,100.00
2022-12-15T21:14:55.144Z,100.00
2022-12-15T21:17:24.148Z,100.00
2022-12-15T21:19:50.739Z,100.00
2022-12-15T21:22:23.919Z,100.00
2022-12-15T21:24:52.886Z,100.00
2022-12-15T21:27:20.899Z,100.00
2022-12-15T21:29:52.320Z,100.00
2022-12-15T21:32:19.390Z,100.00
2022-12-15T21:34:45.948Z,100.00
2022-12-15T21:37:23.625Z,100.00
2022-12-15T21:39:50.773Z,100.00
2022-12-15T21:42:18.844Z,100.00
2022-12-15T21:44:45.580Z,100.00
2022-12-15T21:47:49.886Z,100.00
2022-12-15T21:50:18.900Z,100.00
2022-12-15T21:52:46.058Z,100.00
2022-12-15T21:55:18.273Z,100.00
2022-12-15T21:57:45.441Z,100.00
2022-12-15T22:00:14.692Z,100.00
2022-12-15T22:02:41.387Z,100.00
2022-12-15T22:05:22.953Z,100.00
2022-12-15T22:07:50.501Z,100.00
2022-12-15T22:10:19.180Z,100.00
2022-12-15T22:12:57.519Z,100.00
2022-12-15T22:15:26.281Z,100.00
2022-12-15T22:17:52.885Z,100.00
2022-12-15T22:20:21.881Z,100.00
2022-12-15T22:22:48.966Z,100.00
2022-12-15T22:25:24.408Z,100.00
2022-12-15T22:27:52.475Z,100.00
2022-12-15T22:30:24.492Z,100.00
2022-12-15T22:32:51.509Z,100.00
2022-12-15T22:35:21.986Z,100.00
2022-12-15T22:37:53.937Z,100.00
2022-12-15T22:40:23.102Z,100.00
2022-12-15T22:42:54.872Z,100.00
2022-12-15T22:45:24.085Z,100.00
2022-12-15T22:47:52.357Z,100.00
2022-12-15T22:50:21.430Z,100.00
2022-12-15T22:52:48.353Z,100.00
2022-12-15T22:55:19.816Z,100.00
2022-12-15T22:58:08.357Z,100.00
2022-12-15T23:00:35.096Z,100.00
2022-12-15T23:03:02.485Z,100.00
2022-12-15T23:05:29.148Z,100.00
2022-12-15T23:07:55.739Z,100.00
2022-12-15T23:10:40.852Z,100.00
2022-12-15T23:13:07.448Z,100.00
2022-12-15T23:15:53.143Z,100.00
2022-12-15T23:18:21.378Z,100.00
2022-12-15T23:20:48.049Z,100.00
2022-12-15T23:23:15.426Z,100.00
2022-12-15T23:25:42.048Z,100.00
2022-12-15T23:28:08.790Z,100.00
2022-12-15T23:30:35.957Z,100.00
2022-12-15T23:33:02.589Z,100.00
2022-12-15T23:35:29.734Z,100.00
2022-12-15T23:37:57.803Z,100.00
2022-12-15T23:40:24.399Z,100.00
2022-12-15T23:42:51.445Z,100.00
2022-12-15T23:45:19.052Z,100.00
2022-12-15T23:47:45.701Z,100.00
2022-12-15T23:50:12.280Z,100.00
2022-12-15T23:52:39.060Z,100.00
2022-12-15T23:55:09.974Z,100.00
2022-12-15T23:57:37.764Z,100.00
